Time;durP1;ratioP1;P1;durP2;ratioP2;P2;SDS_P1;SDS_P2;PMS_P1;PMS_P2;Temp;Humidity;BMP_temperature;BMP_pressure;BME280_temperature;BME280_humidity;BME280_pressure;Samples;Min_cycle;Max_cycle;Signal;HPM_P1;HPM_P2
2022/08/19 00:00:38;;;;;;;7.18;4.32;;;;;;;18.61;78.32;100648.59;4999950;28;20061;-69
2022/08/19 00:03:04;;;;;;;5.40;4.05;;;;;;;18.56;78.48;100646.81;5001056;28;20403;-69
2022/08/19 00:05:31;;;;;;;6.57;4.38;;;;;;;18.51;78.59;100645.03;5003419;28;20029;-70
2022/08/19 00:07:56;;;;;;;6.95;4.18;;;;;;;18.49;78.70;100650.19;5019968;28;20034;-69
2022/08/19 00:10:22;;;;;;;5.85;4.00;;;;;;;18.49;78.71;100657.78;5035778;28;20057;-69
2022/08/19 00:12:47;;;;;;;5.65;3.90;;;;;;;18.41;78.36;100653.88;4994182;28;20040;-70
2022/08/19 00:15:14;;;;;;;6.18;3.92;;;;;;;18.35;78.42;100663.69;5013562;28;20029;-69
2022/08/19 00:17:40;;;;;;;7.38;3.67;;;;;;;18.35;78.63;100652.44;4984051;28;20022;-69
2022/08/19 00:20:06;;;;;;;4.55;3.72;;;;;;;18.32;78.67;100653.13;5002870;28;20525;-70
2022/08/19 00:22:33;;;;;;;5.30;3.85;;;;;;;18.28;79.23;100649.38;5018968;28;20128;-69
2022/08/19 00:24:58;;;;;;;6.30;4.28;;;;;;;18.27;78.75;100644.91;5019289;28;20409;-69
2022/08/19 00:27:23;;;;;;;4.95;3.90;;;;;;;18.20;79.05;100648.28;5002642;28;20026;-69
2022/08/19 00:29:49;;;;;;;3.50;3.20;;;;;;;18.21;79.33;100657.53;5035589;28;20572;-69
2022/08/19 00:32:14;;;;;;;7.35;3.90;;;;;;;18.14;78.98;100651.66;4974958;28;20029;-70
2022/08/19 00:34:40;;;;;;;7.40;3.90;;;;;;;18.16;78.76;100663.34;5015755;28;20069;-70
2022/08/19 00:37:05;;;;;;;5.47;3.33;;;;;;;18.12;79.60;100643.53;5001062;28;20474;-69
2022/08/19 00:39:31;;;;;;;4.45;3.47;;;;;;;18.06;79.53;100644.91;5002291;28;20030;-70
2022/08/19 00:41:57;;;;;;;4.40;3.03;;;;;;;18.07;79.53;100646.53;5002940;28;20033;-70
2022/08/19 00:44:27;;;;;;;6.47;3.42;;;;;;;18.05;79.81;100637.63;4999307;28;20562;-70
2022/08/19 00:46:53;;;;;;;5.88;3.58;;;;;;;18.00;79.77;100640.66;5015876;28;20108;-70
2022/08/19 00:49:25;;;;;;;4.25;3.60;;;;;;;17.96;79.72;100642.50;5018974;28;20041;-69
2022/08/19 00:51:53;;;;;;;3.80;2.95;;;;;;;17.94;79.95;100642.84;5002279;28;20500;-69
2022/08/19 00:54:18;;;;;;;4.88;3.28;;;;;;;17.92;80.03;100642.34;5019163;28;20037;-70
2022/08/19 00:56:44;;;;;;;4.53;3.13;;;;;;;17.91;80.23;100637.88;5011618;28;20030;-69
2022/08/19 00:59:10;;;;;;;4.82;2.90;;;;;;;17.92;80.88;100635.91;4985884;28;20025;-69
2022/08/19 01:01:37;;;;;;;4.72;3.20;;;;;;;17.91;80.70;100634.25;5000246;28;20040;-70
2022/08/19 01:04:02;;;;;;;3.35;2.95;;;;;;;17.90;81.05;100625.00;5002057;28;20550;-69
2022/08/19 01:06:28;;;;;;;5.28;3.10;;;;;;;17.87;80.89;100628.50;5018322;28;20037;-70
2022/08/19 01:08:54;;;;;;;4.68;3.17;;;;;;;17.90;81.49;100630.63;5017396;28;20382;-69
2022/08/19 01:11:20;;;;;;;5.30;3.30;;;;;;;17.90;81.39;100636.25;5018551;28;20087;-69
2022/08/19 01:13:46;;;;;;;3.28;2.75;;;;;;;17.91;81.70;100634.25;4998739;28;20034;-69
2022/08/19 01:16:12;;;;;;;3.97;2.97;;;;;;;17.91;81.62;100637.88;5018497;28;20034;-69
2022/08/19 01:18:40;;;;;;;3.35;3.05;;;;;;;17.90;81.48;100632.63;5001878;28;20026;-69
2022/08/19 01:21:15;;;;;;;3.38;2.88;;;;;;;17.89;81.85;100623.38;4985725;28;20478;-70
2022/08/19 01:23:44;;;;;;;5.65;3.05;;;;;;;17.92;82.59;100624.69;5002998;28;20033;-70
2022/08/19 01:26:13;;;;;;;3.58;2.55;;;;;;;17.90;81.74;100630.63;5018793;28;20036;-69
2022/08/19 01:28:38;;;;;;;8.18;2.65;;;;;;;17.92;82.59;100625.50;5002347;28;20087;-70
2022/08/19 01:31:04;;;;;;;3.50;2.70;;;;;;;17.93;82.85;100624.31;4998381;28;20033;-69
2022/08/19 01:33:30;;;;;;;3.42;2.45;;;;;;;17.97;82.25;100622.50;4993022;28;20105;-69
2022/08/19 01:36:36;;;;;;;3.95;2.70;;;;;;;17.96;81.82;100628.44;5003468;28;20043;-70
2022/08/19 01:39:04;;;;;;;4.30;2.30;;;;;;;17.96;82.66;100629.25;5032131;28;20038;-70
2022/08/19 01:41:30;;;;;;;3.67;2.45;;;;;;;17.96;82.47;100629.25;5018107;28;20038;-69
2022/08/19 01:43:56;;;;;;;2.95;2.20;;;;;;;17.98;82.18;100623.31;5001522;28;20071;-69
2022/08/19 01:46:21;;;;;;;3.17;2.40;;;;;;;17.98;82.58;100620.50;5017898;28;20029;-69
2022/08/19 01:48:47;;;;;;;3.85;2.20;;;;;;;17.99;82.92;100628.56;4996837;28;20065;-69
2022/08/19 01:51:12;;;;;;;2.50;2.30;;;;;;;18.01;83.02;100634.69;5018438;28;20041;-69
2022/08/19 01:53:38;;;;;;;2.20;2.00;;;;;;;18.00;82.46;100627.44;5006351;28;20040;-70
2022/08/19 01:56:04;;;;;;;4.15;2.20;;;;;;;18.00;83.09;100626.63;5001713;28;20025;-69
2022/08/19 01:58:35;;;;;;;2.90;2.13;;;;;;;18.02;83.27;100627.06;5001867;28;20025;-70
2022/08/19 02:01:01;;;;;;;2.30;2.03;;;;;;;18.00;82.65;100623.81;5029879;28;20438;-69
2022/08/19 02:03:27;;;;;;;2.10;1.88;;;;;;;18.02;83.26;100625.06;5004695;28;20087;-69
2022/08/19 02:05:58;;;;;;;3.10;2.13;;;;;;;18.04;83.39;100631.19;5021229;28;20041;-70
2022/08/19 02:08:24;;;;;;;2.83;1.83;;;;;;;18.05;83.51;100638.47;5005842;28;20037;-70
2022/08/19 02:10:49;;;;;;;4.10;1.92;;;;;;;18.02;82.43;100630.69;5021629;28;20028;-70
2022/08/19 02:13:15;;;;;;;2.90;1.67;;;;;;;18.06;83.26;100630.88;5005461;28;20473;-69
2022/08/19 02:15:40;;;;;;;2.13;1.80;;;;;;;18.07;83.82;100635.31;5019779;28;20037;-69
2022/08/19 02:18:07;;;;;;;3.47;1.85;;;;;;;18.07;83.70;100636.13;5021113;28;20090;-69
2022/08/19 02:20:32;;;;;;;5.00;1.75;;;;;;;18.06;83.96;100640.09;5008598;28;20131;-69
2022/08/19 02:22:58;;;;;;;2.97;1.60;;;;;;;18.06;84.19;100636.47;5024796;28;20036;-69
2022/08/19 02:25:23;;;;;;;2.88;1.80;;;;;;;18.05;83.83;100635.66;5008473;28;20056;-69
2022/08/19 02:27:48;;;;;;;4.38;2.25;;;;;;;18.06;83.18;100639.28;5021066;28;20083;-69
2022/08/19 02:30:15;;;;;;;3.00;1.67;;;;;;;18.07;84.34;100630.50;5021452;28;20036;-69
2022/08/19 02:32:41;;;;;;;2.83;1.60;;;;;;;18.06;82.85;100634.50;5021551;28;20112;-69
2022/08/19 02:35:07;;;;;;;3.45;1.85;;;;;;;18.08;84.03;100628.53;5004983;28;20064;-70
2022/08/19 02:40:17;;;;;;;2.92;1.30;;;;;;;18.09;84.04;100628.19;5029416;28;20040;-69
2022/08/19 02:42:44;;;;;;;2.40;1.67;;;;;;;18.08;84.47;100632.16;5024612;28;20473;-69
2022/08/19 02:45:10;;;;;;;1.83;1.50;;;;;;;18.08;84.39;100626.53;5008457;28;20033;-69
2022/08/19 02:47:35;;;;;;;4.63;1.42;;;;;;;18.09;84.73;100630.19;5004851;28;20478;-69
2022/08/19 02:50:01;;;;;;;2.75;1.33;;;;;;;18.09;84.62;100633.81;5048818;28;20032;-69
2022/08/19 02:52:28;;;;;;;1.98;1.45;;;;;;;18.09;84.82;100639.41;5007734;28;20051;-70
2022/08/19 02:54:53;;;;;;;2.45;1.63;;;;;;;18.11;84.68;100635.44;5008393;28;20036;-69
2022/08/19 02:57:19;;;;;;;1.90;1.50;;;;;;;18.08;84.65;100634.97;5040680;28;20108;-69
2022/08/19 02:59:45;;;;;;;3.03;1.30;;;;;;;18.10;83.90;100637.44;5007223;28;20048;-69
2022/08/19 03:02:10;;;;;;;1.95;1.23;;;;;;;18.09;84.61;100636.63;5007571;28;20041;-69
2022/08/19 03:04:36;;;;;;;1.98;0.95;;;;;;;18.09;83.26;100641.41;5007519;28;20048;-70
2022/08/19 03:07:01;;;;;;;1.30;1.20;;;;;;;18.06;83.11;100642.09;4991248;28;20033;-69
2022/08/19 03:09:27;;;;;;;1.83;1.20;;;;;;;18.07;83.95;100633.31;5006666;28;20033;-69
2022/08/19 03:11:52;;;;;;;2.85;1.33;;;;;;;18.08;84.32;100637.78;4991425;28;20400;-69
2022/08/19 03:14:18;;;;;;;2.55;1.27;;;;;;;18.07;83.94;100635.31;5022522;28;20039;-69
2022/08/19 03:16:45;;;;;;;2.40;1.65;;;;;;;18.06;84.11;100633.66;5023401;28;20029;-70
2022/08/19 03:19:10;;;;;;;1.90;1.33;;;;;;;18.07;83.44;100638.13;5007545;28;20021;-69
2022/08/19 03:21:36;;;;;;;3.20;1.20;;;;;;;18.05;84.26;100638.47;5023399;28;20095;-69
2022/08/19 03:24:03;;;;;;;3.15;1.63;;;;;;;18.05;84.13;100643.25;5007194;28;20028;-69
2022/08/19 03:26:29;;;;;;;3.05;1.30;;;;;;;18.04;84.03;100642.44;5005420;28;20064;-69
2022/08/19 03:28:55;;;;;;;2.85;1.50;;;;;;;18.03;83.98;100640.78;5039882;28;20029;-69
2022/08/19 03:31:23;;;;;;;2.08;1.27;;;;;;;18.03;84.51;100637.16;5018636;28;20033;-69
2022/08/19 03:33:50;;;;;;;3.10;1.35;;;;;;;18.03;84.97;100635.19;4986707;28;20065;-70
2022/08/19 03:36:22;;;;;;;1.30;1.20;;;;;;;18.03;84.46;100635.19;5039859;28;20461;-69
2022/08/19 03:38:49;;;;;;;1.27;1.17;;;;;;;18.00;84.47;100630.25;5014472;28;20040;-69
2022/08/19 03:41:17;;;;;;;3.58;1.33;;;;;;;18.02;85.05;100629.88;5005159;28;20112;-70
2022/08/19 03:43:43;;;;;;;4.28;1.40;;;;;;;17.98;84.00;100642.97;5006958;28;20091;-70
2022/08/19 03:46:10;;;;;;;2.28;1.20;;;;;;;18.02;84.83;100643.94;5015441;28;20036;-69
2022/08/19 03:48:36;;;;;;;3.17;1.60;;;;;;;18.00;84.27;100643.47;5022685;28;20045;-70
2022/08/19 03:51:02;;;;;;;4.35;1.70;;;;;;;18.00;85.28;100644.28;5023304;28;20036;-69
2022/08/19 03:53:28;;;;;;;2.08;1.33;;;;;;;17.99;84.79;100634.19;5006699;28;20048;-70
2022/08/19 03:55:54;;;;;;;4.47;1.52;;;;;;;18.01;85.77;100642.28;5023433;28;20385;-69
2022/08/19 03:58:20;;;;;;;3.30;1.48;;;;;;;18.01;85.33;100642.28;5023090;28;20025;-69
2022/08/19 04:00:46;;;;;;;2.63;1.40;;;;;;;18.01;85.36;100642.28;5006577;28;20139;-69
2022/08/19 04:03:11;;;;;;;3.78;1.50;;;;;;;18.02;85.41;100638.31;5022827;28;20041;-69
2022/08/19 04:05:37;;;;;;;7.38;1.80;;;;;;;18.00;84.83;100641.47;5006372;28;20477;-69
2022/08/19 04:08:03;;;;;;;2.80;1.60;;;;;;;18.01;84.58;100636.69;5006346;28;20037;-70
2022/08/19 04:10:29;;;;;;;2.40;1.40;;;;;;;18.03;86.26;100638.00;5039067;28;20045;-69
2022/08/19 04:12:54;;;;;;;3.85;1.65;;;;;;;18.01;86.31;100633.88;5023058;28;20021;-69
2022/08/19 04:15:20;;;;;;;5.45;1.80;;;;;;;18.02;85.24;100633.50;5022680;28;20025;-70
2022/08/19 04:17:46;;;;;;;4.15;1.60;;;;;;;18.03;85.30;100635.19;5022243;28;20029;-69
2022/08/19 04:20:11;;;;;;;2.35;1.40;;;;;;;18.04;85.38;100633.19;5022598;28;20518;-70
2022/08/19 04:22:37;;;;;;;2.97;1.77;;;;;;;18.05;86.27;100638.47;5044861;28;20028;-69
2022/08/19 04:25:02;;;;;;;4.03;1.42;;;;;;;18.04;85.97;100634.00;5006064;28;20083;-69
2022/08/19 04:27:29;;;;;;;2.50;1.30;;;;;;;18.06;85.91;100633.66;5022684;28;20503;-70
2022/08/19 04:29:54;;;;;;;2.53;1.55;;;;;;;18.06;86.58;100636.47;5039350;28;20036;-70
2022/08/19 04:32:20;;;;;;;2.70;1.30;;;;;;;18.05;86.39;100630.03;5015939;28;20025;-70
2022/08/19 04:34:46;;;;;;;4.85;1.50;;;;;;;18.07;86.10;100636.13;5006115;28;20561;-70
2022/08/19 04:37:12;;;;;;;3.78;1.40;;;;;;;18.07;86.14;100644.56;5022405;28;20044;-70
2022/08/19 04:42:38;;;;;;;1.77;1.38;;;;;;;18.06;86.12;100637.28;5004319;28;20047;-70
2022/08/19 04:45:12;;;;;;;2.03;1.38;;;;;;;18.05;86.29;100640.44;5024936;28;20490;-70
2022/08/19 04:47:41;;;;;;;1.77;1.10;;;;;;;18.06;87.05;100631.69;4991030;28;20045;-70
2022/08/19 04:50:08;;;;;;;2.97;1.30;;;;;;;18.05;86.16;100627.22;5022528;28;20033;-70
2022/08/19 04:52:34;;;;;;;2.42;1.75;;;;;;;18.04;85.73;100625.56;5005820;28;20366;-70
2022/08/19 04:54:59;;;;;;;4.13;1.20;;;;;;;18.04;86.61;100631.19;5006062;28;20082;-70
2022/08/19 04:57:26;;;;;;;1.83;1.38;;;;;;;18.02;86.22;100633.50;4997996;28;20493;-70
2022/08/19 04:59:55;;;;;;;2.25;1.50;;;;;;;18.02;87.36;100630.69;5020739;28;20031;-70
2022/08/19 05:02:23;;;;;;;2.88;1.60;;;;;;;18.01;87.28;100637.50;5021934;28;20186;-70
2022/08/19 05:04:49;;;;;;;2.03;1.10;;;;;;;18.00;85.96;100635.88;5021484;28;20036;-70
2022/08/19 05:07:14;;;;;;;3.13;1.40;;;;;;;18.02;86.97;100639.13;5000192;28;20041;-70
2022/08/19 05:09:40;;;;;;;2.90;1.30;;;;;;;18.01;87.55;100636.69;5020139;28;20033;-70
2022/08/19 05:12:06;;;;;;;3.13;1.60;;;;;;;18.01;87.34;100637.50;5021811;28;20649;-70
2022/08/19 05:14:31;;;;;;;3.10;1.50;;;;;;;18.01;86.71;100640.31;5005406;28;20021;-70
2022/08/19 05:16:57;;;;;;;1.55;1.20;;;;;;;18.02;87.60;100646.75;5021413;28;20055;-70
2022/08/19 05:24:50;;;;;;;1.48;0.98;;;;;;;18.01;88.68;100647.91;5024314;28;20469;-70
2022/08/19 05:27:16;;;;;;;1.77;1.40;;;;;;;18.00;88.10;100647.09;5034610;28;20029;-70
2022/08/19 05:29:41;;;;;;;2.92;1.50;;;;;;;18.01;88.21;100642.28;5037834;28;20478;-70
2022/08/19 05:32:10;;;;;;;2.50;1.20;;;;;;;18.01;88.67;100645.09;5023312;28;20029;-70
2022/08/19 05:34:37;;;;;;;3.25;1.52;;;;;;;18.03;89.02;100652.03;5022448;28;20029;-70
2022/08/19 05:37:04;;;;;;;2.05;1.50;;;;;;;18.04;88.25;100656.47;5006956;28;20033;-70
2022/08/19 05:39:30;;;;;;;1.88;1.50;;;;;;;18.02;88.20;100652.38;5009351;28;20021;-70
2022/08/19 05:42:00;;;;;;;1.88;1.20;;;;;;;18.03;87.83;100649.22;5009367;28;20037;-70
2022/08/19 05:44:32;;;;;;;1.85;1.40;;;;;;;18.04;89.03;100652.84;5009236;28;20082;-70
2022/08/19 05:47:01;;;;;;;2.30;1.60;;;;;;;18.07;89.76;100658.59;5009589;28;20048;-70
2022/08/19 05:49:27;;;;;;;3.13;1.63;;;;;;;18.07;89.51;100654.97;5005904;28;20041;-70
2022/08/19 05:51:54;;;;;;;2.05;1.50;;;;;;;18.08;89.53;100656.66;5008593;28;20029;-70
2022/08/19 05:54:20;;;;;;;3.03;1.60;;;;;;;18.11;90.58;100657.91;5059713;28;20025;-70
2022/08/19 05:56:47;;;;;;;1.88;1.50;;;;;;;18.10;90.53;100662.72;5008923;28;20043;-70
2022/08/19 05:59:13;;;;;;;3.45;1.58;;;;;;;18.12;90.16;100660.41;5017692;28;20029;-70
2022/08/19 06:01:40;;;;;;;2.35;1.85;;;;;;;18.13;91.75;100661.22;5007862;28;20060;-70
2022/08/19 06:04:06;;;;;;;2.63;1.80;;;;;;;18.15;91.79;100661.72;5003525;28;20029;-70
2022/08/19 06:06:33;;;;;;;2.83;1.80;;;;;;;18.15;91.57;100664.53;5007917;28;20033;-70
2022/08/19 06:09:00;;;;;;;2.35;1.40;;;;;;;18.18;90.78;100669.47;5008583;28;20083;-70
2022/08/19 06:11:43;;;;;;;2.28;1.50;;;;;;;18.21;90.27;100663.16;4998343;28;20025;-70
2022/08/19 06:14:11;;;;;;;2.50;1.48;;;;;;;18.21;90.89;100663.16;5034250;28;20041;-70
2022/08/19 06:16:38;;;;;;;1.85;1.40;;;;;;;18.22;91.21;100665.63;5006909;28;20035;-70
2022/08/19 06:19:06;;;;;;;2.17;1.40;;;;;;;18.24;89.99;100668.09;5023202;28;20021;-70
2022/08/19 06:21:32;;;;;;;1.85;1.55;;;;;;;18.27;90.77;100670.22;5005010;28;20129;-70
2022/08/19 06:23:58;;;;;;;2.05;1.60;;;;;;;18.27;91.45;100667.41;5041308;28;20373;-70
2022/08/19 06:26:24;;;;;;;3.30;1.83;;;;;;;18.29;90.77;100665.06;4990044;28;20025;-70
2022/08/19 06:28:50;;;;;;;2.95;1.88;;;;;;;18.30;92.16;100669.53;5008438;28;20119;-70
2022/08/19 06:31:23;;;;;;;3.05;2.00;;;;;;;18.33;92.36;100680.09;5020192;28;20049;-70
2022/08/19 06:33:48;;;;;;;3.53;1.80;;;;;;;18.32;91.06;100670.00;5003887;28;20112;-70
2022/08/19 06:36:21;;;;;;;2.17;1.50;;;;;;;18.32;91.81;100667.19;5005171;28;20092;-70
2022/08/19 06:38:47;;;;;;;2.88;1.80;;;;;;;18.36;94.13;100664.50;5008625;28;20028;-70
2022/08/19 06:41:12;;;;;;;2.63;1.90;;;;;;;18.37;95.23;100660.56;5007993;28;20037;-70
2022/08/19 06:43:38;;;;;;;1.98;1.40;;;;;;;18.38;91.53;100665.81;4991975;28;20044;-70
2022/08/19 06:46:03;;;;;;;2.33;1.70;;;;;;;18.41;93.99;100661.50;4988411;28;20030;-70
2022/08/19 06:48:30;;;;;;;3.00;2.22;;;;;;;18.43;95.06;100654.38;5001323;28;20055;-70
2022/08/19 06:50:55;;;;;;;3.58;2.08;;;;;;;18.46;93.56;100664.09;5007945;28;20215;-70
2022/08/19 06:53:21;;;;;;;1.90;1.70;;;;;;;18.48;92.68;100668.22;5023906;28;20021;-70
2022/08/19 06:55:47;;;;;;;4.00;2.30;;;;;;;18.52;94.63;100674.78;4998328;28;20663;-70
2022/08/19 06:58:12;;;;;;;1.85;1.60;;;;;;;18.57;92.55;100675.75;5018828;28;20385;-70
2022/08/19 07:00:38;;;;;;;2.75;1.80;;;;;;;18.60;93.14;100675.06;5020070;28;20033;-70
2022/08/19 07:03:03;;;;;;;5.60;1.90;;;;;;;18.65;95.09;100677.69;4991360;28;20055;-70
2022/08/19 07:05:28;;;;;;;2.90;2.03;;;;;;;18.70;97.82;100678.28;5004213;28;20029;-70
2022/08/19 07:07:54;;;;;;;3.35;1.70;;;;;;;18.74;93.47;100678.44;5011191;28;20037;-71
2022/08/19 07:10:19;;;;;;;2.72;1.55;;;;;;;18.79;92.01;100675.44;5021664;28;20493;-70
2022/08/19 07:12:45;;;;;;;2.72;2.28;;;;;;;18.86;94.55;100684.13;5007592;28;20032;-70
2022/08/19 07:15:11;;;;;;;3.00;1.88;;;;;;;18.90;93.24;100689.88;5023889;28;20041;-70
2022/08/19 07:17:38;;;;;;;1.98;1.55;;;;;;;18.95;93.20;100684.06;4990893;28;20025;-70
2022/08/19 07:20:06;;;;;;;2.95;1.95;;;;;;;19.01;96.36;100684.66;5024161;28;20539;-70
2022/08/19 07:22:33;;;;;;;2.70;1.58;;;;;;;19.05;91.91;100682.78;5040208;28;20080;-70
2022/08/19 07:24:59;;;;;;;2.20;1.75;;;;;;;19.09;93.49;100681.75;5022737;28;20064;-70
2022/08/19 07:27:24;;;;;;;3.13;1.73;;;;;;;19.13;93.33;100688.31;4990703;28;20052;-70
2022/08/19 07:29:50;;;;;;;3.00;1.60;;;;;;;19.18;91.94;100681.66;5011321;28;20032;-69
2022/08/19 07:32:15;;;;;;;1.60;1.50;;;;;;;19.23;91.25;100684.25;5017528;28;20028;-70
2022/08/19 07:34:41;;;;;;;2.22;1.60;;;;;;;19.28;91.97;100686.84;5007050;28;20028;-70
2022/08/19 07:37:06;;;;;;;2.72;1.83;;;;;;;19.35;91.94;100684.25;5040128;28;20025;-70
2022/08/19 07:39:33;;;;;;;2.90;1.90;;;;;;;19.43;92.44;100691.78;5039606;28;20029;-70
2022/08/19 07:42:00;;;;;;;2.33;1.58;;;;;;;19.52;93.13;100688.03;5007103;28;20025;-70
2022/08/19 07:44:26;;;;;;;3.20;1.50;;;;;;;19.61;90.42;100685.94;5021836;28;20057;-70
2022/08/19 07:46:53;;;;;;;4.65;2.60;;;;;;;19.73;93.00;100699.25;5006729;28;20032;-72
2022/08/19 07:49:19;;;;;;;2.38;1.98;;;;;;;19.83;90.03;100693.13;5023156;28;20223;-73
2022/08/19 07:52:06;;;;;;;3.08;1.42;;;;;;;19.94;87.78;100690.66;5006919;28;20080;-72
2022/08/19 07:54:34;;;;;;;4.25;1.80;;;;;;;20.04;87.45;100701.47;5023032;28;20040;-72
2022/08/19 07:56:59;;;;;;;3.65;1.92;;;;;;;20.11;86.92;100698.88;5007218;28;20099;-72
2022/08/19 07:59:25;;;;;;;3.30;1.70;;;;;;;20.20;86.09;100701.59;5014393;28;20033;-73
2022/08/19 08:01:52;;;;;;;4.32;2.00;;;;;;;20.27;87.55;100696.97;5017327;28;20021;-72
2022/08/19 08:09:47;;;;;;;2.53;1.83;;;;;;;20.53;85.28;100705.06;5028166;28;20588;-73
2022/08/19 08:12:18;;;;;;;3.15;1.77;;;;;;;20.61;85.66;100711.72;5003215;28;20056;-72
2022/08/19 08:14:49;;;;;;;3.53;1.60;;;;;;;20.68;85.46;100716.78;5011272;28;20086;-72
2022/08/19 08:17:15;;;;;;;3.03;1.73;;;;;;;20.75;84.86;100712.16;5006309;28;20024;-72
2022/08/19 08:19:41;;;;;;;3.67;2.08;;;;;;;20.84;87.89;100712.00;5003440;28;20478;-73
2022/08/19 08:22:06;;;;;;;4.60;2.15;;;;;;;20.90;85.77;100715.41;5002734;28;20064;-72
2022/08/19 08:24:33;;;;;;;8.23;2.65;;;;;;;20.95;88.60;100718.78;5035495;28;20041;-72
2022/08/19 08:26:59;;;;;;;3.33;2.17;;;;;;;21.03;89.21;100705.66;5018270;28;20046;-73
2022/08/19 08:29:29;;;;;;;3.95;2.20;;;;;;;21.08;85.74;100713.88;4999640;28;20088;-72
2022/08/19 08:31:55;;;;;;;3.63;1.92;;;;;;;21.16;86.00;100721.38;5018707;28;20041;-73
2022/08/19 08:34:20;;;;;;;3.22;1.90;;;;;;;21.23;85.90;100717.09;5002828;28;20022;-73
2022/08/19 08:36:46;;;;;;;6.40;2.33;;;;;;;21.29;86.38;100718.50;4986382;28;20052;-72
2022/08/19 08:39:13;;;;;;;3.28;2.00;;;;;;;21.33;83.97;100722.22;5018894;28;20123;-72
2022/08/19 08:41:40;;;;;;;3.08;1.70;;;;;;;21.40;82.99;100719.66;5019320;28;20034;-72
2022/08/19 08:44:06;;;;;;;2.63;1.95;;;;;;;21.46;83.40;100718.19;5035231;28;20367;-72
2022/08/19 08:46:39;;;;;;;5.88;2.13;;;;;;;21.53;83.62;100720.38;5035231;28;20032;-72
2022/08/19 08:49:14;;;;;;;4.65;2.60;;;;;;;21.57;84.59;100713.63;5000495;28;20022;-72
2022/08/19 08:51:50;;;;;;;3.10;1.98;;;;;;;21.63;82.97;100711.34;5035021;28;20044;-73
2022/08/19 08:54:18;;;;;;;3.88;2.03;;;;;;;21.72;82.83;100705.53;5002915;28;20032;-73
2022/08/19 08:56:44;;;;;;;4.47;2.08;;;;;;;21.88;83.05;100711.19;5002527;28;20033;-73
2022/08/19 08:59:32;;;;;;;2.80;1.80;;;;;;;22.03;80.87;100707.50;5014167;28;20088;-72
2022/08/19 09:01:58;;;;;;;4.72;1.85;;;;;;;22.20;80.46;100700.66;5017638;28;20033;-73
2022/08/19 09:04:23;;;;;;;4.47;2.22;;;;;;;22.35;81.82;100702.63;5002286;28;20029;-72
2022/08/19 09:07:04;;;;;;;5.35;2.40;;;;;;;22.60;82.16;100703.19;4985837;28;20030;-73
2022/08/19 09:09:35;;;;;;;4.40;2.08;;;;;;;22.82;79.01;100695.97;5035000;28;20493;-73
2022/08/19 09:12:09;;;;;;;5.07;2.28;;;;;;;23.02;80.92;100707.31;5023352;28;20120;-73
2022/08/19 09:15:02;;;;;;;5.32;2.30;;;;;;;23.27;80.33;100711.44;5031836;28;20034;-73
2022/08/19 09:17:30;;;;;;;;;;;;;;;23.52;80.52;100713.94;5023185;28;20046;-73
2022/08/19 09:20:17;;;;;;;4.97;2.28;;;;;;;23.74;78.89;100715.97;5034982;28;20050;-73
2022/08/19 09:22:46;;;;;;;4.68;2.35;;;;;;;23.96;79.09;100717.16;5017387;28;20094;-73
2022/08/19 09:25:14;;;;;;;2.88;1.73;;;;;;;24.18;75.61;100714.63;5024328;28;20034;-73
2022/08/19 09:27:40;;;;;;;3.95;2.00;;;;;;;24.41;77.06;100715.38;5018589;28;20037;-72
2022/08/19 09:30:07;;;;;;;5.70;2.35;;;;;;;24.62;76.29;100720.56;5018581;28;20025;-73
2022/08/19 09:32:32;;;;;;;3.83;2.20;;;;;;;24.82;74.83;100711.91;5001512;28;20032;-73
2022/08/19 09:35:00;;;;;;;5.50;2.00;;;;;;;25.00;74.13;100710.09;5002109;28;20422;-72
2022/08/19 09:37:25;;;;;;;3.50;1.73;;;;;;;25.12;72.70;100715.50;5018256;28;20036;-73
2022/08/19 09:39:51;;;;;;;3.75;1.73;;;;;;;25.26;71.77;100720.56;5018111;28;20033;-73
2022/08/19 09:42:16;;;;;;;3.90;1.80;;;;;;;25.35;71.12;100717.41;5036240;28;20029;-73
2022/08/19 09:44:42;;;;;;;5.28;2.10;;;;;;;25.44;70.90;100719.97;5042547;28;20029;-73
2022/08/19 09:47:08;;;;;;;3.25;1.58;;;;;;;25.48;70.46;100717.94;5029106;28;20029;-73
2022/08/19 09:49:34;;;;;;;2.72;1.50;;;;;;;25.51;70.14;100717.97;5001527;28;20030;-73
2022/08/19 09:51:59;;;;;;;3.53;2.00;;;;;;;25.49;69.72;100716.72;5001670;28;20392;-73
2022/08/19 09:54:25;;;;;;;3.85;1.90;;;;;;;25.48;69.63;100720.78;5014953;28;20033;-73
2022/08/19 09:56:51;;;;;;;2.35;1.60;;;;;;;25.50;70.58;100716.34;5000635;28;20111;-73
2022/08/19 09:59:17;;;;;;;3.28;1.67;;;;;;;25.52;70.51;100719.63;5001701;28;20398;-73
2022/08/19 10:01:42;;;;;;;3.30;1.63;;;;;;;25.51;70.74;100717.97;5017885;28;20033;-73
2022/08/19 10:04:08;;;;;;;7.13;2.00;;;;;;;25.53;70.14;100709.88;5025999;28;20405;-73
2022/08/19 10:06:34;;;;;;;2.97;1.73;;;;;;;25.55;70.08;100716.00;5034201;28;20041;-73
2022/08/19 10:08:59;;;;;;;3.95;1.98;;;;;;;25.58;70.61;100706.69;5017982;28;20041;-73
2022/08/19 10:11:26;;;;;;;5.53;1.88;;;;;;;25.60;70.61;100709.97;5018207;28;20025;-73
2022/08/19 10:13:51;;;;;;;5.78;2.03;;;;;;;25.66;69.88;100715.25;5018122;28;20474;-73
2022/08/19 10:16:19;;;;;;;5.07;1.90;;;;;;;25.66;69.52;100715.25;5026037;28;20105;-73
2022/08/19 10:18:45;;;;;;;4.57;2.00;;;;;;;25.66;70.63;100718.13;5034334;28;20168;-73
2022/08/19 10:21:12;;;;;;;4.57;2.10;;;;;;;25.61;71.16;100713.63;5001432;28;20045;-73
2022/08/19 10:23:38;;;;;;;4.70;1.95;;;;;;;25.63;71.42;100709.19;5003009;28;20037;-73
2022/08/19 10:26:05;;;;;;;7.88;2.45;;;;;;;25.65;71.98;100720.16;5005247;28;20029;-73
2022/08/19 10:28:36;;;;;;;7.05;2.00;;;;;;;25.71;71.75;100717.75;5021671;28;20053;-73
2022/08/19 10:31:10;;;;;;;5.35;2.00;;;;;;;25.78;70.92;100712.16;5017984;28;20498;-73
2022/08/19 10:33:36;;;;;;;3.92;1.67;;;;;;;25.84;70.00;100710.59;5000002;28;20036;-73
2022/08/19 10:36:04;;;;;;;3.78;1.90;;;;;;;25.91;69.47;100721.22;5006777;28;20029;-73
2022/08/19 10:38:30;;;;;;;5.82;1.90;;;;;;;25.95;69.54;100705.00;5004459;28;20072;-73
2022/08/19 10:40:56;;;;;;;5.47;2.00;;;;;;;25.96;68.80;100707.44;5001852;28;20042;-73
2022/08/19 10:43:22;;;;;;;3.75;1.73;;;;;;;25.98;68.58;100699.31;5035499;28;20032;-73
2022/08/19 10:45:58;;;;;;;3.03;1.50;;;;;;;26.00;70.56;100698.94;5016102;28;20056;-73
2022/08/19 10:48:24;;;;;;;3.80;1.70;;;;;;;26.11;70.82;100707.56;5004937;28;20026;-73
2022/08/19 10:53:34;;;;;;;4.05;1.60;;;;;;;26.31;68.47;100700.38;5018964;28;20029;-73
2022/08/19 10:58:44;;;;;;;2.13;1.17;;;;;;;26.54;69.12;100690.75;5022445;28;20112;-74
2022/08/19 11:01:09;;;;;;;6.30;1.42;;;;;;;26.70;67.50;100691.25;4987997;28;20048;-74
2022/08/19 11:03:35;;;;;;;1.88;1.05;;;;;;;26.86;67.43;100690.91;5020738;28;20025;-74
2022/08/19 11:06:05;;;;;;;3.17;1.23;;;;;;;26.99;65.61;100694.19;5002270;28;20030;-73
2022/08/19 11:08:31;;;;;;;3.55;1.30;;;;;;;27.13;64.58;100697.09;5005087;28;20445;-74
2022/08/19 11:11:00;;;;;;;3.38;1.45;;;;;;;27.21;63.87;100703.66;5020833;28;20037;-74
2022/08/19 11:13:27;;;;;;;4.28;1.20;;;;;;;27.20;63.46;100694.31;5020960;28;20045;-74
2022/08/19 11:16:07;;;;;;;3.67;1.20;;;;;;;27.27;63.05;100694.31;5020669;28;20551;-73
2022/08/19 11:18:37;;;;;;;4.63;1.13;;;;;;;27.28;63.39;100701.66;5004036;28;20120;-74
2022/08/19 11:21:17;;;;;;;2.58;1.10;;;;;;;27.24;62.55;100702.84;5020769;28;20041;-74
2022/08/19 11:23:43;;;;;;;4.00;1.15;;;;;;;27.24;62.88;100712.22;4991922;28;20386;-74
2022/08/19 11:26:08;;;;;;;2.67;0.82;;;;;;;27.15;63.16;100715.44;5000810;28;20038;-73
2022/08/19 11:28:34;;;;;;;4.50;1.15;;;;;;;27.11;63.67;100703.22;4983562;28;20084;-74
2022/08/19 11:30:59;;;;;;;2.58;0.90;;;;;;;26.98;63.65;100704.78;5018945;28;20390;-74
2022/08/19 11:33:26;;;;;;;3.67;0.90;;;;;;;26.92;64.16;100701.50;4999717;28;20037;-73
2022/08/19 11:35:53;;;;;;;2.38;0.80;;;;;;;26.87;64.26;100704.75;5016774;28;20065;-73
2022/08/19 11:38:18;;;;;;;2.30;0.73;;;;;;;26.81;64.17;100697.00;5036541;28;20029;-73
2022/08/19 11:40:44;;;;;;;3.08;0.95;;;;;;;26.76;64.43;100694.53;5017265;28;20063;-73
2022/08/19 11:43:09;;;;;;;2.70;1.02;;;;;;;26.73;65.72;100699.81;5037401;28;20048;-73
2022/08/19 11:45:35;;;;;;;2.67;0.90;;;;;;;26.72;65.54;100703.06;5036341;28;20033;-73